Wheeler Army Airfield, Hawaii
Current Conditions -  °F | °C
As of 5:58 PM on Thursday 18 Dec 2014 (Local Time) from PHHI Reporting Station
Light Rain Light Rain  
Wind Chill: 72°   Ceiling: 2400
Heat Index: 72°   Visibility: 9mi
Dew Point: 64°   Wind: 7mph
Humidity: 78%   Direction: 40°NE
Pressure: 30.09"   Gusts: NA
Location:  21.4859°N, 158.036°W
Report Text: PHHI 190358Z AUTO 04006KT 9SM -RA FEW011 BKN024 22/18 A3009 RMK AO2 RAB0357 SLP182 P0000 $
Loading
Personal Weather Stations






























Interactive Weather Map New forecast layout! Learn more

10-Day Weather Forecast

Advertisements
Track Severe Weather on mobile